Balneario Camboriu, Brazil
Current Conditions -  °F | °C
As of 6:45 PM on Sunday 21 Dec 2014 (Local Time) from SBNF Reporting Station
Broken Clouds Broken Clouds  
Wind Chill: 82°   Ceiling: 6000
Heat Index: 92°   Visibility: 6mi
Dew Point: 79°   Wind: 3mph
Humidity: 89%   Direction: 30°NNE
Pressure: 29.59"   Gusts: NA
Location:  26.99°S, 48.63°W
Report Text: SBNF 212045Z 03003KT 9999 SCT020 BKN060 28/26 Q1002 RETSRA
Loading
Personal Weather Stations






























Interactive Weather Map New forecast layout! Learn more

10-Day Weather Forecast

Advertisements
Track Severe Weather on mobile